KR-0449 weather

Southern Central Care Hospital Heliport
Busan, Busan Gwang'yeogsi, South Korea

Public forecast

Using degrees Celsius for public forecast. Weather courtesy of forecast.io.

METAR (pilot weather report)

Closest report is Gimhae International Airport, 6.7 nm (12.4 km) NW. Retrieved 2019/08/23 19:00 UTC (42 minutes ago):

RKPK 231900Z 36003KT 9000 NSC 21/19 Q1010

TAF (pilot weather forecast)

Closest forecast is Gimhae International Airport, 6.7 nm (12.4 km) NW. Retrieved 2019/08/23 18:00 UTC (2 hours ago):

TAF RKPK 231700Z 2318/2424 33006KT 9999 SCT030 BKN200 TX29/2406Z TN23/2421Z BECMG 2402/2403 21010KT